createdAt,value
2019-03-01T04:48:20.483Z,83.84
2019-03-01T04:50:51.145Z,83.64
2019-03-01T04:53:21.858Z,82.99
2019-03-01T04:55:52.385Z,82.29
2019-03-01T04:58:22.916Z,81.19
2019-03-01T05:00:53.446Z,79.56
2019-03-01T05:03:23.975Z,78.32
2019-03-01T05:05:54.605Z,77.36
2019-03-01T05:08:29.129Z,76.58
2019-03-01T05:10:59.661Z,75.94
2019-03-01T05:13:30.197Z,75.71
2019-03-01T05:16:00.816Z,74.86
2019-03-01T05:18:31.459Z,74.27
2019-03-01T05:21:01.991Z,73.74
2019-03-01T05:23:32.714Z,73.33
2019-03-01T05:26:03.250Z,72.83
2019-03-01T05:28:33.751Z,72.22
2019-03-01T05:31:04.433Z,71.79
2019-03-01T05:33:34.952Z,72.20
2019-03-01T05:36:05.479Z,71.35
2019-03-01T05:38:36.107Z,71.13
2019-03-01T05:41:06.645Z,71.04
2019-03-01T05:43:37.136Z,70.89
2019-03-01T05:46:07.704Z,70.45
2019-03-01T05:48:38.230Z,69.86
2019-03-01T05:51:09.071Z,70.72
2019-03-01T05:53:39.597Z,70.43
2019-03-01T05:56:10.065Z,70.36
2019-03-01T05:58:40.560Z,70.47
2019-03-01T06:01:23.268Z,70.06
2019-03-01T06:03:56.956Z,70.04
2019-03-01T06:06:42.792Z,69.88
2019-03-01T06:09:28.651Z,69.31
2019-03-01T06:12:21.927Z,69.61
2019-03-01T06:15:12.266Z,69.53
2019-03-01T06:17:54.320Z,69.69
2019-03-01T06:20:49.422Z,70.04
2019-03-01T06:23:26.114Z,69.80
2019-03-01T06:26:02.606Z,70.21
2019-03-01T06:28:55.635Z,69.61
2019-03-01T06:31:45.726Z,69.48
2019-03-01T06:34:31.240Z,70.47
2019-03-01T06:37:14.382Z,69.64
2019-03-01T06:40:07.760Z,69.56
2019-03-01T06:42:53.123Z,71.73
2019-03-01T06:45:26.943Z,69.31
2019-03-01T06:47:57.449Z,71.78
2019-03-01T06:50:33.203Z,69.02
2019-03-01T06:53:03.707Z,68.68
2019-03-01T06:55:38.813Z,68.71
2019-03-01T06:58:12.318Z,68.42
2019-03-01T07:00:50.084Z,68.32
2019-03-01T07:03:16.764Z,67.19
2019-03-01T07:05:47.306Z,67.00
2019-03-01T07:08:18.037Z,66.78
2019-03-01T07:10:48.666Z,66.85
2019-03-01T07:13:20.243Z,65.84
2019-03-01T07:15:50.721Z,65.61
2019-03-01T07:18:21.214Z,64.96
2019-03-01T07:20:51.737Z,64.94
2019-03-01T07:23:22.349Z,64.79
2019-03-01T07:25:54.782Z,64.42
2019-03-01T07:28:25.045Z,64.56
2019-03-01T07:30:55.782Z,64.98
2019-03-01T07:33:26.372Z,64.70
2019-03-01T07:35:57.923Z,64.27
2019-03-01T07:38:28.451Z,64.24
2019-03-01T07:40:59.023Z,63.61
2019-03-01T07:43:29.554Z,62.79
2019-03-01T07:46:00.194Z,62.74
2019-03-01T07:48:30.725Z,62.95
2019-03-01T07:51:02.436Z,62.94
2019-03-01T07:53:36.106Z,63.75
2019-03-01T07:56:05.615Z,64.70
2019-03-01T07:58:36.262Z,64.21
2019-03-01T08:01:06.793Z,63.73
2019-03-01T08:03:37.342Z,63.72
2019-03-01T08:06:13.151Z,64.09
2019-03-01T08:08:40.153Z,64.04
2019-03-01T08:11:10.667Z,63.84
2019-03-01T08:13:41.289Z,63.81
2019-03-01T08:16:11.837Z,64.21
2019-03-01T08:18:44.157Z,64.27
2019-03-01T08:21:15.035Z,63.96
2019-03-01T08:23:45.721Z,64.25
2019-03-01T08:26:16.255Z,64.38
2019-03-01T08:28:46.785Z,63.20
2019-03-01T08:31:20.914Z,63.37
2019-03-01T08:33:49.609Z,63.54
2019-03-01T08:36:20.118Z,63.43
2019-03-01T08:38:50.682Z,63.50
2019-03-01T08:41:21.540Z,63.48
2019-03-01T08:43:54.539Z,63.27
2019-03-01T08:46:26.796Z,63.29
2019-03-01T08:48:57.485Z,63.45
2019-03-01T08:51:28.218Z,62.22
2019-03-01T08:53:58.848Z,61.97
2019-03-01T08:56:29.490Z,62.83
2019-03-01T08:59:00.770Z,62.79
2019-03-01T09:01:31.813Z,62.63
2019-03-01T09:04:06.169Z,62.23
2019-03-01T09:06:36.798Z,61.80
2019-03-01T09:09:08.805Z,61.57
2019-03-01T09:11:41.764Z,61.28
2019-03-01T09:14:12.390Z,61.63
2019-03-01T09:16:46.321Z,60.92
2019-03-01T09:19:16.816Z,60.52
2019-03-01T09:21:50.150Z,60.05
2019-03-01T09:24:21.299Z,59.79
2019-03-01T09:26:55.171Z,60.24
2019-03-01T09:29:24.710Z,59.99
2019-03-01T09:31:57.640Z,59.50
2019-03-01T09:34:28.615Z,59.42
2019-03-01T09:36:59.790Z,59.14
2019-03-01T09:39:30.293Z,59.25
2019-03-01T09:42:04.416Z,59.40
2019-03-01T09:44:34.654Z,57.99
2019-03-01T09:47:05.344Z,56.98
2019-03-01T09:49:35.919Z,56.45
2019-03-01T09:52:06.478Z,56.52
2019-03-01T09:54:37.189Z,56.68
2019-03-01T09:57:07.919Z,57.41
2019-03-01T09:59:38.560Z,57.67
2019-03-01T10:02:09.289Z,56.77
2019-03-01T10:04:39.928Z,55.92
2019-03-01T10:07:10.556Z,55.69
2019-03-01T10:09:42.886Z,55.65
2019-03-01T10:12:14.636Z,55.82
2019-03-01T10:14:45.224Z,56.19
2019-03-01T10:17:15.879Z,56.01
2019-03-01T10:19:46.492Z,55.13
2019-03-01T10:22:17.060Z,55.15
2019-03-01T10:24:47.649Z,53.87
2019-03-01T10:27:18.180Z,52.92
2019-03-01T10:29:48.711Z,53.75
2019-03-01T10:32:19.339Z,53.40
2019-03-01T10:34:49.903Z,51.76
2019-03-01T10:37:20.532Z,51.36
2019-03-01T10:39:55.423Z,52.16
2019-03-01T10:42:23.422Z,51.97
2019-03-01T10:44:54.052Z,51.98
2019-03-01T10:47:24.531Z,51.04
2019-03-01T10:49:55.096Z,50.68
2019-03-01T10:52:27.075Z,50.63
2019-03-01T10:54:57.548Z,51.18
2019-03-01T10:57:28.315Z,51.77
2019-03-01T10:59:58.977Z,52.77
2019-03-01T11:02:29.707Z,53.45
2019-03-01T11:05:02.998Z,53.51
2019-03-01T11:07:33.565Z,53.01
2019-03-01T11:10:06.972Z,53.84
2019-03-01T11:12:37.870Z,54.05
2019-03-01T11:15:10.594Z,52.78
2019-03-01T11:17:41.183Z,51.94
2019-03-01T11:20:16.783Z,52.38
2019-03-01T11:22:49.299Z,52.31
2019-03-01T11:25:21.798Z,51.14
2019-03-01T11:27:52.518Z,52.09
2019-03-01T11:30:26.370Z,51.90
2019-03-01T11:32:56.960Z,52.42
2019-03-01T11:35:27.601Z,52.06
2019-03-01T11:37:58.328Z,52.20
2019-03-01T11:40:30.915Z,52.38
2019-03-01T11:43:01.653Z,53.68
2019-03-01T11:45:32.279Z,54.06
2019-03-01T11:48:03.116Z,54.43
2019-03-01T11:50:33.650Z,52.99
2019-03-01T11:53:04.182Z,53.04
2019-03-01T11:55:34.806Z,53.29
2019-03-01T11:58:05.502Z,53.45
2019-03-01T12:00:36.078Z,51.93
2019-03-01T12:03:06.709Z,51.21
2019-03-01T12:05:37.351Z,50.61
2019-03-01T12:08:07.976Z,49.84
2019-03-01T12:10:38.607Z,49.42
2019-03-01T12:13:09.160Z,50.85
2019-03-01T12:15:39.777Z,50.01
2019-03-01T12:18:11.538Z,49.28
2019-03-01T12:20:42.184Z,49.07
2019-03-01T12:23:12.801Z,48.82
2019-03-01T12:25:43.377Z,48.61
2019-03-01T12:28:13.969Z,49.94
2019-03-01T12:30:44.597Z,50.67
2019-03-01T12:33:15.225Z,50.02
2019-03-01T12:35:45.870Z,49.63
2019-03-01T12:38:16.602Z,51.00
2019-03-01T12:40:48.203Z,51.05
2019-03-01T12:43:18.787Z,51.54
2019-03-01T12:45:49.385Z,51.95
2019-03-01T12:48:19.936Z,52.73
2019-03-01T12:50:50.609Z,52.89
2019-03-01T12:53:21.183Z,52.43
2019-03-01T12:55:51.670Z,51.81
2019-03-01T12:58:22.182Z,52.03
2019-03-01T13:00:52.711Z,52.49
2019-03-01T13:03:23.241Z,52.85
2019-03-01T13:05:53.869Z,51.81
2019-03-01T13:08:24.401Z,51.26
2019-03-01T13:10:55.059Z,50.63
2019-03-01T13:13:25.769Z,49.66
2019-03-01T13:15:56.397Z,50.31
2019-03-01T13:18:27.040Z,50.71
2019-03-01T13:20:57.766Z,50.87
2019-03-01T13:23:28.412Z,50.51
2019-03-01T13:25:59.135Z,51.26
2019-03-01T13:28:29.692Z,52.66
2019-03-01T13:31:00.246Z,52.42
2019-03-01T13:33:30.836Z,52.12
2019-03-01T13:36:03.660Z,52.30
2019-03-01T13:38:35.096Z,52.35
2019-03-01T13:41:05.924Z,51.96
2019-03-01T13:43:36.539Z,52.88
2019-03-01T13:46:07.277Z,52.91
2019-03-01T13:48:37.809Z,53.88
2019-03-01T13:51:08.434Z,53.29
2019-03-01T13:53:48.517Z,53.55
2019-03-01T13:56:11.650Z,53.53
2019-03-01T13:58:42.179Z,52.40
2019-03-01T14:01:13.018Z,51.90
2019-03-01T14:03:43.669Z,53.24
2019-03-01T14:06:15.849Z,52.37
2019-03-01T14:08:46.489Z,52.38
2019-03-01T14:11:20.787Z,52.02
2019-03-01T14:13:56.140Z,51.64
2019-03-01T14:16:28.697Z,52.15
2019-03-01T14:18:59.230Z,52.24
2019-03-01T14:21:32.595Z,52.06
2019-03-01T14:24:11.411Z,51.82
2019-03-01T14:26:44.023Z,52.03
2019-03-01T14:29:16.042Z,51.64
2019-03-01T14:31:53.729Z,52.11
2019-03-01T14:34:28.235Z,52.97
2019-03-01T14:36:58.850Z,53.23
2019-03-01T14:39:29.494Z,53.74
2019-03-01T14:42:00.249Z,54.60
2019-03-01T14:44:33.862Z,55.24
2019-03-01T14:47:03.022Z,54.76
2019-03-01T14:49:43.318Z,55.10
2019-03-01T14:52:15.049Z,55.38
2019-03-01T14:54:47.160Z,55.70
2019-03-01T14:57:20.797Z,55.61
2019-03-01T14:59:58.006Z,56.03
2019-03-01T15:02:39.771Z,56.28
2019-03-01T15:05:16.738Z,55.25
2019-03-01T15:07:40.953Z,55.04
2019-03-01T15:10:14.428Z,55.43
2019-03-01T15:12:46.781Z,55.50
2019-03-01T15:15:22.932Z,55.18
2019-03-01T15:17:57.008Z,55.77
2019-03-01T15:20:27.138Z,55.85
2019-03-01T15:22:57.665Z,56.12
2019-03-01T15:25:28.294Z,56.36
2019-03-01T15:27:58.854Z,56.45
2019-03-01T15:30:29.453Z,56.65
2019-03-01T15:33:00.102Z,56.48
2019-03-01T15:35:30.627Z,56.40
2019-03-01T15:38:01.135Z,56.40
2019-03-01T15:40:32.674Z,56.94
2019-03-01T15:43:03.447Z,60.24
2019-03-01T15:45:36.632Z,62.66
2019-03-01T15:48:06.177Z,63.67
2019-03-01T15:50:36.772Z,64.04
2019-03-01T15:53:07.330Z,64.39
2019-03-01T15:55:37.837Z,64.45
2019-03-01T15:58:08.368Z,64.56
2019-03-01T16:00:38.903Z,65.53
2019-03-01T16:03:09.389Z,65.99
2019-03-01T16:05:40.072Z,66.23
2019-03-01T16:08:10.700Z,65.87
2019-03-01T16:10:41.326Z,65.79
2019-03-01T16:13:13.177Z,66.46
2019-03-01T16:15:43.926Z,66.80
2019-03-01T16:18:14.626Z,67.46
2019-03-01T16:20:47.151Z,67.69
2019-03-01T16:23:17.569Z,67.97
2019-03-01T16:25:48.097Z,68.17
2019-03-01T16:28:18.901Z,68.10
2019-03-01T16:30:49.627Z,68.56
2019-03-01T16:33:22.432Z,68.80
2019-03-01T16:35:54.116Z,68.67
2019-03-01T16:38:24.747Z,68.85
2019-03-01T16:40:55.379Z,69.04
2019-03-01T16:43:28.542Z,69.60
2019-03-01T16:45:59.312Z,70.23
2019-03-01T16:48:29.846Z,69.98
2019-03-01T16:51:00.473Z,70.15
2019-03-01T16:53:30.966Z,70.32
2019-03-01T16:56:02.607Z,70.05
2019-03-01T16:58:34.006Z,70.12
2019-03-01T17:01:04.875Z,69.18
2019-03-01T17:03:35.485Z,69.05
2019-03-01T17:06:06.016Z,69.12
2019-03-01T17:08:39.617Z,68.99
2019-03-01T17:11:08.700Z,69.13
2019-03-01T17:13:39.345Z,68.96
2019-03-01T17:16:10.078Z,69.30
2019-03-01T17:18:40.710Z,69.10
2019-03-01T17:21:12.460Z,69.08
2019-03-01T17:23:43.613Z,69.36
2019-03-01T17:26:14.362Z,69.57
2019-03-01T17:28:44.982Z,69.89
2019-03-01T17:31:15.512Z,70.11
2019-03-01T17:33:48.853Z,69.95
2019-03-01T17:36:18.255Z,69.85
2019-03-01T17:38:48.985Z,69.44
2019-03-01T17:41:19.592Z,69.09
2019-03-01T17:43:50.122Z,69.38
2019-03-01T17:46:20.652Z,69.08
2019-03-01T17:48:54.249Z,68.97
2019-03-01T17:51:23.357Z,69.26
2019-03-01T17:53:53.879Z,69.73
2019-03-01T17:56:24.507Z,70.19
2019-03-01T17:58:55.037Z,69.56
2019-03-01T18:01:25.678Z,69.75
2019-03-01T18:03:57.984Z,69.79
2019-03-01T18:06:28.376Z,69.29
2019-03-01T18:08:58.934Z,68.90
2019-03-01T18:11:29.537Z,68.34
2019-03-01T18:14:00.860Z,68.34
2019-03-01T18:16:32.311Z,68.15
2019-03-01T18:19:02.971Z,68.13
2019-03-01T18:21:33.501Z,68.28
2019-03-01T18:24:04.148Z,67.94
2019-03-01T18:26:36.445Z,68.79
2019-03-01T18:29:08.417Z,68.90
2019-03-01T18:31:39.215Z,69.06
2019-03-01T18:34:09.851Z,69.63
2019-03-01T18:36:40.491Z,69.52
2019-03-01T18:39:11.539Z,68.89
2019-03-01T18:41:42.358Z,69.63
2019-03-01T18:44:12.998Z,69.61
2019-03-01T18:46:43.530Z,69.44
2019-03-01T18:49:16.745Z,70.56
2019-03-01T18:51:46.323Z,70.06
2019-03-01T18:54:16.963Z,70.35
2019-03-01T18:56:47.464Z,70.14
2019-03-01T18:59:18.030Z,70.48
2019-03-01T19:01:48.558Z,70.58
2019-03-01T19:04:29.356Z,70.90
2019-03-01T19:06:52.537Z,70.70
2019-03-01T19:09:23.164Z,70.50
2019-03-01T19:11:53.867Z,71.57
2019-03-01T19:14:24.380Z,71.65
2019-03-01T19:16:55.013Z,71.67
2019-03-01T19:19:29.784Z,71.71
2019-03-01T19:21:57.818Z,71.71
2019-03-01T19:24:29.028Z,71.92
